Time;durP1;ratioP1;P1;durP2;ratioP2;P2;SDS_P1;SDS_P2;PMS_P1;PMS_P2;Temp;Humidity;BMP_temperature;BMP_pressure;BME280_temperature;BME280_humidity;BME280_pressure;Samples;Min_cycle;Max_cycle;Signal;HPM_P1;HPM_P2
2023/04/02 00:00:12;;;;;;;;;;;;;;;;;;1036219;28;1965;-56
2023/04/02 00:01:04;;;;;;;;;;;;;;;;;;1029927;28;4075;-55
2023/04/02 00:01:42;;;;;;;;;;;;;;;;;;1028197;28;3827;-60
2023/04/02 00:02:31;;;;;;;;;;;;;;;;;;1027386;28;4096;-57
2023/04/02 00:03:03;;;;;;;;;;;;;;;;;;1038434;28;1842;-56
2023/04/02 00:03:41;;;;;;;;;;;;;;;;;;1032631;28;4004;-60
2023/04/02 00:04:20;;;;;;;;;;;;;;;;;;1033161;28;4125;-55
2023/04/02 00:05:15;;;;;;;;;;;;;;;;;;1034321;28;2254;-59
2023/04/02 00:05:53;;;;;;;;;;;;;;;;;;1033596;28;4040;-56
2023/04/02 00:06:33;;;;;;;;;;;;;;;;;;1034422;28;3853;-58
2023/04/02 00:07:29;;;;;;;;;;;;;;;;;;1033852;28;2742;-59
2023/04/02 00:08:02;;;;;;;;;;;;;;;;;;1035195;28;4008;-60
2023/04/02 00:08:37;;;;;;;;;;;;;;;;;;1038621;28;4185;-56
2023/04/02 00:09:14;;;;;;;;;;;;;;;;;;1036446;28;3958;-55
2023/04/02 00:09:44;;;;;;;;;;;;;;;;;;1038905;28;1963;-58
2023/04/02 00:10:35;;;;;;;;;;;;;;;;;;1036207;28;3922;-59
2023/04/02 00:11:06;;;;;;;;;;;;;;;;;;1034481;28;1860;-55
2023/04/02 00:11:37;;;;;;;;;;;;;;;;;;1033964;28;4071;-55
2023/04/02 00:12:14;;;;;;;;;;;;;;;;;;1035005;28;1647;-55
2023/04/02 00:12:57;;;;;;;;;;;;;;;;;;1035370;28;1798;-58
2023/04/02 00:13:31;;;;;;;;;;;;;;;;;;1032883;28;3883;-57
2023/04/02 00:14:02;;;;;;;;;;;;;;;;;;1034401;28;1918;-55
2023/04/02 00:14:33;;;;;;;;;;;;;;;;;;1032159;28;3949;-55
2023/04/02 00:15:04;;;;;;;;;;;;;;;;;;1034408;28;2093;-57
2023/04/02 00:15:35;;;;;;;;;;;;;;;;;;1033397;28;3953;-57
2023/04/02 00:16:07;;;;;;;;;;;;;;;;;;1034671;28;2156;-57
2023/04/02 00:16:37;;;;;;;;;;;;;;;;;;1034382;28;3963;-60
2023/04/02 00:17:07;;;;;;;;;;;;;;;;;;1034425;28;2482;-56
2023/04/02 00:17:37;;;;;;;;;;;;;;;;;;1033200;28;3629;-58
2023/04/02 00:18:09;;;;;;;;;;;;;;;;;;1033675;28;4071;-53
2023/04/02 00:18:43;;;;;;;;;;;;;;;;;;1034197;28;2203;-58
2023/04/02 00:19:19;;;;;;;;;;;;;;;;;;1032206;28;4064;-57
2023/04/02 00:19:56;;;;;;;;;;;;;;;;;;1033557;28;2007;-57
2023/04/02 00:20:29;;;;;;;;;;;;;;;;;;1033471;28;3856;-57
2023/04/02 00:21:25;;;;;;;;;;;;;;;;;;1034029;28;1888;-57
2023/04/02 00:21:56;;;;;;;;;;;;;;;;;;1035212;28;4015;-54
2023/04/02 00:22:28;;;;;;;;;;;;;;;;;;1033986;28;4072;-59
2023/04/02 00:22:59;;;;;;;;;;;;;;;;;;1033316;28;2524;-56
2023/04/02 00:23:29;;;;;;;;;;;;;;;;;;1032894;28;4061;-58
2023/04/02 00:24:01;;;;;;;;;;;;;;;;;;1034375;28;2330;-55
2023/04/02 00:24:31;;;;;;;;;;;;;;;;;;1034229;28;3856;-56
2023/04/02 00:25:06;;;;;;;;;;;;;;;;;;1035486;28;2476;-59
2023/04/02 00:25:41;;;;;;;;;;;;;;;;;;1032917;28;4147;-58
2023/04/02 00:26:20;;;;;;;;;;;;;;;;;;1033933;28;4027;-55
2023/04/02 00:26:52;;;;;;;;;;;;;;;;;;1033585;28;1820;-60
2023/04/02 00:27:22;;;;;;;;;;;;;;;;;;1033584;28;3952;-57
2023/04/02 00:27:53;;;;;;;;;;;;;;;;;;1032739;28;2624;-56
2023/04/02 00:28:23;;;;;;;;;;;;;;;;;;1033396;28;4068;-57
2023/04/02 00:28:54;;;;;;;;;;;;;;;;;;1032927;28;2551;-58
2023/04/02 00:29:24;;;;;;;;;;;;;;;;;;1033216;28;3911;-57
2023/04/02 00:29:55;;;;;;;;;;;;;;;;;;1032428;28;2834;-59
2023/04/02 00:30:25;;;;;;;;;;;;;;;;;;1033700;28;4157;-56
2023/04/02 00:30:58;;;;;;;;;;;;;;;;;;1035020;28;1795;-55
2023/04/02 00:31:29;;;;;;;;;;;;;;;;;;1031988;28;4061;-55
2023/04/02 00:31:59;;;;;;;;;;;;;;;;;;1032126;28;2701;-54
2023/04/02 00:32:31;;;;;;;;;;;;;;;;;;1032867;28;3906;-52
2023/04/02 00:33:02;;;;;;;;;;;;;;;;;;1034712;28;1695;-56
2023/04/02 00:33:33;;;;;;;;;;;;;;;;;;1032919;28;3802;-58
2023/04/02 00:34:05;;;;;;;;;;;;;;;;;;1035037;28;1923;-59
2023/04/02 00:34:36;;;;;;;;;;;;;;;;;;1033606;28;4031;-55
2023/04/02 00:35:11;;;;;;;;;;;;;;;;;;1033049;28;3075;-58
2023/04/02 00:35:42;;;;;;;;;;;;;;;;;;1031816;28;3812;-55
2023/04/02 00:36:12;;;;;;;;;;;;;;;;;;1034969;28;4046;-57
2023/04/02 00:36:43;;;;;;;;;;;;;;;;;;1035036;28;1676;-56
2023/04/02 00:37:22;;;;;;;;;;;;;;;;;;1032748;28;4107;-57
2023/04/02 00:37:53;;;;;;;;;;;;;;;;;;1034492;28;2825;-57
2023/04/02 00:38:27;;;;;;;;;;;;;;;;;;1033681;28;4645;-57
2023/04/02 00:38:58;;;;;;;;;;;;;;;;;;1033819;28;2712;-54
2023/04/02 00:39:30;;;;;;;;;;;;;;;;;;1032886;28;4058;-57
2023/04/02 00:40:04;;;;;;;;;;;;;;;;;;1035121;28;1839;-58
2023/04/02 00:40:37;;;;;;;;;;;;;;;;;;1034551;28;3741;-57
2023/04/02 00:41:15;;;;;;;;;;;;;;;;;;1034498;28;4072;-54
2023/04/02 00:41:46;;;;;;;;;;;;;;;;;;1033822;28;1823;-58
2023/04/02 00:42:17;;;;;;;;;;;;;;;;;;1035200;28;4110;-59
2023/04/02 00:42:48;;;;;;;;;;;;;;;;;;1034904;28;2101;-57
2023/04/02 00:43:19;;;;;;;;;;;;;;;;;;1032763;28;4154;-58
2023/04/02 00:43:50;;;;;;;;;;;;;;;;;;1038556;28;1971;-53
2023/04/02 00:44:21;;;;;;;;;;;;;;;;;;1033573;28;4068;-57
2023/04/02 00:44:53;;;;;;;;;;;;;;;;;;1035607;28;2120;-58
2023/04/02 00:45:27;;;;;;;;;;;;;;;;;;1032765;28;4411;-56
2023/04/02 00:46:00;;;;;;;;;;;;;;;;;;1034854;28;1772;-59
2023/04/02 00:46:33;;;;;;;;;;;;;;;;;;1035518;28;4066;-56
2023/04/02 00:47:08;;;;;;;;;;;;;;;;;;1033309;28;2338;-59
2023/04/02 00:47:38;;;;;;;;;;;;;;;;;;1034660;28;4015;-60
2023/04/02 00:48:27;;;;;;;;;;;;;;;;;;1033061;28;3883;-58
2023/04/02 00:48:58;;;;;;;;;;;;;;;;;;1035177;28;1803;-58
2023/04/02 00:49:33;;;;;;;;;;;;;;;;;;1034467;28;3773;-58
2023/04/02 00:50:07;;;;;;;;;;;;;;;;;;1033169;28;2314;-58
2023/04/02 00:50:41;;;;;;;;;;;;;;;;;;1033280;28;3896;-58
2023/04/02 00:51:14;;;;;;;;;;;;;;;;;;1034601;28;3975;-58
2023/04/02 00:51:53;;;;;;;;;;;;;;;;;;1032139;28;2849;-58
2023/04/02 00:52:26;;;;;;;;;;;;;;;;;;1032851;28;4073;-58
2023/04/02 00:52:58;;;;;;;;;;;;;;;;;;1032906;28;3107;-56
2023/04/02 00:53:29;;;;;;;;;;;;;;;;;;1034343;28;4108;-58
2023/04/02 00:54:01;;;;;;;;;;;;;;;;;;1034668;28;2642;-56
2023/04/02 00:54:36;;;;;;;;;;;;;;;;;;1033093;28;4093;-59
2023/04/02 00:55:22;;;;;;;;;;;;;;;;;;1033925;28;3072;-57
2023/04/02 00:55:52;;;;;;;;;;;;;;;;;;1035076;28;3694;-58
2023/04/02 00:56:40;;;;;;;;;;;;;;;;;;1034064;28;4421;-58
2023/04/02 00:57:16;;;;;;;;;;;;;;;;;;1032429;28;4057;-56
2023/04/02 00:57:47;;;;;;;;;;;;;;;;;;1033401;28;2366;-59
2023/04/02 00:58:22;;;;;;;;;;;;;;;;;;1032776;28;4080;-58
2023/04/02 00:58:53;;;;;;;;;;;;;;;;;;1033824;28;1813;-59
2023/04/02 00:59:24;;;;;;;;;;;;;;;;;;1033069;28;4104;-55
2023/04/02 00:59:57;;;;;;;;;;;;;;;;;;1035105;28;2750;-58
2023/04/02 01:00:28;;;;;;;;;;;;;;;;;;1032983;28;4109;-58
2023/04/02 01:00:58;;;;;;;;;;;;;;;;;;1035226;28;2009;-55
2023/04/02 01:01:35;;;;;;;;;;;;;;;;;;1033107;28;3782;-58
2023/04/02 01:02:16;;;;;;;;;;;;;;;;;;1032276;28;2616;-58
2023/04/02 01:03:05;;;;;;;;;;;;;;;;;;1032690;28;3676;-58
2023/04/02 01:03:36;;;;;;;;;;;;;;;;;;1033594;28;4021;-57
2023/04/02 01:04:25;;;;;;;;;;;;;;;;;;1033208;28;2723;-55
2023/04/02 01:05:16;;;;;;;;;;;;;;;;;;1031060;28;3922;-57
2023/04/02 01:05:49;;;;;;;;;;;;;;;;;;1036961;28;3760;-59
2023/04/02 01:06:19;;;;;;;;;;;;;;;;;;1032346;28;3983;-56
2023/04/02 01:06:52;;;;;;;;;;;;;;;;;;1035341;28;1822;-58
2023/04/02 01:07:27;;;;;;;;;;;;;;;;;;1031231;28;4226;-57
2023/04/02 01:07:57;;;;;;;;;;;;;;;;;;1031291;28;2613;-59
2023/04/02 01:08:33;;;;;;;;;;;;;;;;;;1035560;28;4162;-60
2023/04/02 01:09:04;;;;;;;;;;;;;;;;;;1034760;28;2882;-56
2023/04/02 01:09:34;;;;;;;;;;;;;;;;;;1035478;28;3999;-55
2023/04/02 01:10:04;;;;;;;;;;;;;;;;;;1032025;28;2798;-57
2023/04/02 01:10:34;;;;;;;;;;;;;;;;;;1035160;28;3808;-57
2023/04/02 01:11:23;;;;;;;;;;;;;;;;;;1035385;28;2024;-56
2023/04/02 01:11:53;;;;;;;;;;;;;;;;;;1031620;28;3858;-57
2023/04/02 01:12:28;;;;;;;;;;;;;;;;;;1034406;28;3884;-55
2023/04/02 01:13:11;;;;;;;;;;;;;;;;;;1034323;28;1912;-57
2023/04/02 01:13:50;;;;;;;;;;;;;;;;;;1032661;28;3959;-60
2023/04/02 01:14:33;;;;;;;;;;;;;;;;;;1030705;28;3992;-59
2023/04/02 01:15:09;;;;;;;;;;;;;;;;;;1033581;28;2969;-58
2023/04/02 01:15:41;;;;;;;;;;;;;;;;;;1034494;28;3836;-56
2023/04/02 01:16:23;;;;;;;;;;;;;;;;;;1034529;28;3878;-57
2023/04/02 01:16:59;;;;;;;;;;;;;;;;;;1035380;28;1857;-57
2023/04/02 01:17:37;;;;;;;;;;;;;;;;;;1031807;28;4376;-58
2023/04/02 01:18:12;;;;;;;;;;;;;;;;;;1031917;28;4231;-56
2023/04/02 01:18:45;;;;;;;;;;;;;;;;;;1033720;28;1869;-58
2023/04/02 01:19:17;;;;;;;;;;;;;;;;;;1034804;28;4070;-58
2023/04/02 01:19:47;;;;;;;;;;;;;;;;;;1036090;28;2796;-58
2023/04/02 01:20:21;;;;;;;;;;;;;;;;;;1036527;28;4117;-58
2023/04/02 01:21:09;;;;;;;;;;;;;;;;;;1037363;28;2749;-57
2023/04/02 01:21:58;;;;;;;;;;;;;;;;;;1037583;28;3871;-58
2023/04/02 01:22:51;;;;;;;;;;;;;;;;;;1037627;28;3867;-58
2023/04/02 01:23:22;;;;;;;;;;;;;;;;;;1037228;28;3950;-58
2023/04/02 01:23:56;;;;;;;;;;;;;;;;;;1036367;28;3132;-59
2023/04/02 01:24:31;;;;;;;;;;;;;;;;;;1038231;28;4054;-58
2023/04/02 01:25:03;;;;;;;;;;;;;;;;;;1037784;28;2659;-56
2023/04/02 01:25:46;;;;;;;;;;;;;;;;;;1038058;28;3786;-58
2023/04/02 01:26:39;;;;;;;;;;;;;;;;;;1036264;28;4407;-57
2023/04/02 01:27:15;;;;;;;;;;;;;;;;;;1037498;28;4111;-55
2023/04/02 01:27:51;;;;;;;;;;;;;;;;;;1036068;28;2808;-57
2023/04/02 01:28:26;;;;;;;;;;;;;;;;;;1035198;28;4038;-58
2023/04/02 01:29:01;;;;;;;;;;;;;;;;;;1039653;28;1699;-56
2023/04/02 01:29:37;;;;;;;;;;;;;;;;;;1037504;28;3813;-56
2023/04/02 01:30:10;;;;;;;;;;;;;;;;;;1037606;28;2824;-56
2023/04/02 01:30:43;;;;;;;;;;;;;;;;;;1038469;28;4036;-59
2023/04/02 01:31:14;;;;;;;;;;;;;;;;;;1034960;28;4049;-58
2023/04/02 01:31:46;;;;;;;;;;;;;;;;;;1034072;28;3032;-57
2023/04/02 01:32:18;;;;;;;;;;;;;;;;;;1033874;28;4129;-57
2023/04/02 01:32:49;;;;;;;;;;;;;;;;;;1034694;28;1733;-55
2023/04/02 01:33:21;;;;;;;;;;;;;;;;;;1034914;28;4469;-56
2023/04/02 01:33:52;;;;;;;;;;;;;;;;;;1032800;28;2512;-58
2023/04/02 01:34:24;;;;;;;;;;;;;;;;;;1033763;28;4074;-60
2023/04/02 01:34:55;;;;;;;;;;;;;;;;;;1034019;28;1868;-61
2023/04/02 01:35:26;;;;;;;;;;;;;;;;;;1032136;28;4108;-55
2023/04/02 01:36:06;;;;;;;;;;;;;;;;;;1035016;28;2809;-57
2023/04/02 01:36:42;;;;;;;;;;;;;;;;;;1034482;28;3967;-56
2023/04/02 01:37:15;;;;;;;;;;;;;;;;;;1035179;28;4463;-57
2023/04/02 01:37:52;;;;;;;;;;;;;;;;;;1032513;28;2781;-58
2023/04/02 01:38:26;;;;;;;;;;;;;;;;;;1032191;28;3973;-59
2023/04/02 01:39:01;;;;;;;;;;;;;;;;;;1034172;28;1721;-58
2023/04/02 01:39:38;;;;;;;;;;;;;;;;;;1034794;28;4087;-56
2023/04/02 01:40:20;;;;;;;;;;;;;;;;;;1030918;28;4115;-57
2023/04/02 01:40:58;;;;;;;;;;;;;;;;;;1034714;28;1771;-60
2023/04/02 01:41:33;;;;;;;;;;;;;;;;;;1033499;28;4023;-56
2023/04/02 01:42:06;;;;;;;;;;;;;;;;;;1032305;28;2228;-59
2023/04/02 01:42:46;;;;;;;;;;;;;;;;;;1033788;28;4027;-58
2023/04/02 01:43:35;;;;;;;;;;;;;;;;;;1033291;28;3996;-58
2023/04/02 01:44:08;;;;;;;;;;;;;;;;;;1032656;28;2684;-56
2023/04/02 01:44:40;;;;;;;;;;;;;;;;;;1032842;28;3955;-59
2023/04/02 01:45:13;;;;;;;;;;;;;;;;;;1032046;28;4046;-56
2023/04/02 01:45:43;;;;;;;;;;;;;;;;;;1035326;28;2732;-57
2023/04/02 01:46:24;;;;;;;;;;;;;;;;;;1033776;28;4434;-57
2023/04/02 01:46:57;;;;;;;;;;;;;;;;;;1034096;28;1933;-57
2023/04/02 01:47:28;;;;;;;;;;;;;;;;;;1035038;28;3915;-58
2023/04/02 01:47:59;;;;;;;;;;;;;;;;;;1032179;28;2831;-58
2023/04/02 01:48:30;;;;;;;;;;;;;;;;;;1034862;28;4065;-58
2023/04/02 01:49:10;;;;;;;;;;;;;;;;;;1034692;28;1987;-55
2023/04/02 01:49:41;;;;;;;;;;;;;;;;;;1033900;28;4854;-58
2023/04/02 01:50:18;;;;;;;;;;;;;;;;;;1032582;28;4055;-59
2023/04/02 01:50:50;;;;;;;;;;;;;;;;;;1035921;28;2529;-55
2023/04/02 01:51:28;;;;;;;;;;;;;;;;;;1033643;28;4101;-57
2023/04/02 01:51:58;;;;;;;;;;;;;;;;;;1034520;28;1884;-58
2023/04/02 01:52:48;;;;;;;;;;;;;;;;;;1034023;28;4042;-57
2023/04/02 01:53:19;;;;;;;;;;;;;;;;;;1032948;28;4228;-56
2023/04/02 01:53:49;;;;;;;;;;;;;;;;;;1036140;28;1595;-58
2023/04/02 01:54:20;;;;;;;;;;;;;;;;;;1032287;28;4159;-57
2023/04/02 01:54:51;;;;;;;;;;;;;;;;;;1035193;28;2835;-57
2023/04/02 01:55:39;;;;;;;;;;;;;;;;;;1033578;28;4096;-56
2023/04/02 01:56:09;;;;;;;;;;;;;;;;;;1031672;28;4208;-56
2023/04/02 01:56:41;;;;;;;;;;;;;;;;;;1034325;28;3171;-59
2023/04/02 01:57:11;;;;;;;;;;;;;;;;;;1031267;28;4076;-58
2023/04/02 01:57:44;;;;;;;;;;;;;;;;;;1032733;28;2592;-57
2023/04/02 01:58:17;;;;;;;;;;;;;;;;;;1033776;28;3900;-58
2023/04/02 01:58:48;;;;;;;;;;;;;;;;;;1032484;28;2674;-58
2023/04/02 01:59:21;;;;;;;;;;;;;;;;;;1034078;28;4165;-59
2023/04/02 01:59:51;;;;;;;;;;;;;;;;;;1035159;28;1667;-57
2023/04/02 02:00:22;;;;;;;;;;;;;;;;;;1030934;28;4027;-59
2023/04/02 02:00:58;;;;;;;;;;;;;;;;;;1032912;28;3255;-56
2023/04/02 02:01:34;;;;;;;;;;;;;;;;;;1032189;28;4029;-55
2023/04/02 02:02:06;;;;;;;;;;;;;;;;;;1032711;28;2739;-55
2023/04/02 02:02:36;;;;;;;;;;;;;;;;;;1033268;28;3795;-57
2023/04/02 02:03:08;;;;;;;;;;;;;;;;;;1034285;28;2728;-59
2023/04/02 02:03:40;;;;;;;;;;;;;;;;;;1034860;28;3664;-56
2023/04/02 02:04:11;;;;;;;;;;;;;;;;;;1034476;28;4046;-60
2023/04/02 02:04:42;;;;;;;;;;;;;;;;;;1034754;28;2948;-56
2023/04/02 02:05:14;;;;;;;;;;;;;;;;;;1033908;28;3868;-58
2023/04/02 02:05:45;;;;;;;;;;;;;;;;;;1033765;28;2844;-57
2023/04/02 02:06:16;;;;;;;;;;;;;;;;;;1034669;28;4083;-54
2023/04/02 02:06:46;;;;;;;;;;;;;;;;;;1034944;28;1759;-58
2023/04/02 02:07:19;;;;;;;;;;;;;;;;;;1034676;28;4144;-57
2023/04/02 02:07:50;;;;;;;;;;;;;;;;;;1033488;28;2267;-59
2023/04/02 02:08:26;;;;;;;;;;;;;;;;;;1032395;28;4073;-60
2023/04/02 02:09:04;;;;;;;;;;;;;;;;;;1030359;28;3100;-56
2023/04/02 02:09:34;;;;;;;;;;;;;;;;;;1031221;28;3926;-59
2023/04/02 02:10:06;;;;;;;;;;;;;;;;;;1030510;28;2659;-58
2023/04/02 02:10:38;;;;;;;;;;;;;;;;;;1034385;28;3959;-58
2023/04/02 02:11:12;;;;;;;;;;;;;;;;;;1030776;28;4090;-55
2023/04/02 02:11:43;;;;;;;;;;;;;;;;;;1034343;28;2818;-57
2023/04/02 02:12:14;;;;;;;;;;;;;;;;;;1034630;28;3908;-59
2023/04/02 02:12:45;;;;;;;;;;;;;;;;;;1034753;28;2569;-58
2023/04/02 02:13:15;;;;;;;;;;;;;;;;;;1030559;28;3893;-57
2023/04/02 02:14:06;;;;;;;;;;;;;;;;;;1035427;28;2430;-55
2023/04/02 02:14:36;;;;;;;;;;;;;;;;;;1034928;28;4273;-55
2023/04/02 02:15:13;;;;;;;;;;;;;;;;;;1033111;28;2716;-58
2023/04/02 02:15:43;;;;;;;;;;;;;;;;;;1037272;28;3835;-59
2023/04/02 02:16:16;;;;;;;;;;;;;;;;;;1037932;28;3862;-58
2023/04/02 02:16:47;;;;;;;;;;;;;;;;;;1037619;28;2332;-59
2023/04/02 02:17:22;;;;;;;;;;;;;;;;;;1037082;28;3911;-56
2023/04/02 02:17:57;;;;;;;;;;;;;;;;;;1038114;28;2640;-57
2023/04/02 02:18:27;;;;;;;;;;;;;;;;;;1039238;28;3882;-57
2023/04/02 02:19:00;;;;;;;;;;;;;;;;;;1036085;28;2810;-56
2023/04/02 02:19:34;;;;;;;;;;;;;;;;;;1035958;28;4101;-53
2023/04/02 02:20:11;;;;;;;;;;;;;;;;;;1038075;28;2021;-59
2023/04/02 02:20:41;;;;;;;;;;;;;;;;;;1035998;28;3923;-57
2023/04/02 02:21:17;;;;;;;;;;;;;;;;;;1037099;28;3934;-58
2023/04/02 02:21:50;;;;;;;;;;;;;;;;;;1036958;28;2354;-57
2023/04/02 02:22:26;;;;;;;;;;;;;;;;;;1039404;28;3967;-58
2023/04/02 02:22:57;;;;;;;;;;;;;;;;;;1040842;28;4026;-58
2023/04/02 02:23:28;;;;;;;;;;;;;;;;;;1038478;28;4069;-56
2023/04/02 02:24:00;;;;;;;;;;;;;;;;;;1039947;28;1790;-59
2023/04/02 02:24:32;;;;;;;;;;;;;;;;;;1038483;28;4046;-59
2023/04/02 02:25:05;;;;;;;;;;;;;;;;;;1038665;28;1755;-59
2023/04/02 02:25:36;;;;;;;;;;;;;;;;;;1037279;28;4203;-59
2023/04/02 02:26:06;;;;;;;;;;;;;;;;;;1037483;28;2350;-59
2023/04/02 02:26:37;;;;;;;;;;;;;;;;;;1037668;28;4204;-56
2023/04/02 02:27:23;;;;;;;;;;;;;;;;;;1038476;28;2306;-58
2023/04/02 02:27:56;;;;;;;;;;;;;;;;;;1033576;28;3781;-57
2023/04/02 02:28:28;;;;;;;;;;;;;;;;;;1032164;28;4031;-60
2023/04/02 02:28:59;;;;;;;;;;;;;;;;;;1034528;28;1776;-56
2023/04/02 02:29:31;;;;;;;;;;;;;;;;;;1035134;28;4065;-56
2023/04/02 02:30:05;;;;;;;;;;;;;;;;;;1033586;28;2804;-60
2023/04/02 02:30:37;;;;;;;;;;;;;;;;;;1034190;28;4020;-56
2023/04/02 02:31:18;;;;;;;;;;;;;;;;;;1033706;28;4051;-57
2023/04/02 02:31:51;;;;;;;;;;;;;;;;;;1033269;28;2260;-58
2023/04/02 02:32:24;;;;;;;;;;;;;;;;;;1033497;28;4051;-57
2023/04/02 02:32:58;;;;;;;;;;;;;;;;;;1034282;28;1813;-59
2023/04/02 02:33:40;;;;;;;;;;;;;;;;;;1034273;28;4111;-57
2023/04/02 02:34:15;;;;;;;;;;;;;;;;;;1032701;28;3966;-58
2023/04/02 02:34:48;;;;;;;;;;;;;;;;;;1034840;28;1976;-58
2023/04/02 02:35:24;;;;;;;;;;;;;;;;;;1032998;28;3908;-58
2023/04/02 02:36:01;;;;;;;;;;;;;;;;;;1033308;28;2760;-60
2023/04/02 02:36:35;;;;;;;;;;;;;;;;;;1033761;28;3972;-57
2023/04/02 02:37:10;;;;;;;;;;;;;;;;;;1034467;28;1827;-59
2023/04/02 02:37:42;;;;;;;;;;;;;;;;;;1032250;28;3901;-59
2023/04/02 02:38:31;;;;;;;;;;;;;;;;;;1034770;28;3954;-53
2023/04/02 02:39:05;;;;;;;;;;;;;;;;;;1033875;28;2896;-54
2023/04/02 02:39:37;;;;;;;;;;;;;;;;;;1035050;28;3794;-57
2023/04/02 02:40:14;;;;;;;;;;;;;;;;;;1032650;28;2313;-58
2023/04/02 02:40:49;;;;;;;;;;;;;;;;;;1034960;28;3968;-59
2023/04/02 02:41:40;;;;;;;;;;;;;;;;;;1034465;28;4128;-53
2023/04/02 02:42:23;;;;;;;;;;;;;;;;;;1032278;28;4043;-57
2023/04/02 02:42:56;;;;;;;;;;;;;;;;;;1036970;28;2352;-58
2023/04/02 02:43:26;;;;;;;;;;;;;;;;;;1034214;28;3942;-56
2023/04/02 02:44:00;;;;;;;;;;;;;;;;;;1036290;28;2509;-59
2023/04/02 02:44:33;;;;;;;;;;;;;;;;;;1038498;28;3967;-60
2023/04/02 02:45:05;;;;;;;;;;;;;;;;;;1036708;28;2946;-58
2023/04/02 02:45:37;;;;;;;;;;;;;;;;;;1038578;28;4033;-58
2023/04/02 02:46:11;;;;;;;;;;;;;;;;;;1037268;28;2765;-59
2023/04/02 02:46:49;;;;;;;;;;;;;;;;;;1038084;28;3893;-59
2023/04/02 02:47:25;;;;;;;;;;;;;;;;;;1038217;28;3863;-57
2023/04/02 02:47:56;;;;;;;;;;;;;;;;;;1037939;28;1761;-58
2023/04/02 02:48:32;;;;;;;;;;;;;;;;;;1038949;28;3892;-54
2023/04/02 02:49:03;;;;;;;;;;;;;;;;;;1037377;28;1701;-59
2023/04/02 02:49:36;;;;;;;;;;;;;;;;;;1039335;28;4013;-55
2023/04/02 02:50:11;;;;;;;;;;;;;;;;;;1039308;28;1867;-58
2023/04/02 02:50:41;;;;;;;;;;;;;;;;;;1038052;28;3972;-56
2023/04/02 02:51:18;;;;;;;;;;;;;;;;;;1034921;28;4108;-57
2023/04/02 02:51:51;;;;;;;;;;;;;;;;;;1038106;28;1702;-57
2023/04/02 02:52:24;;;;;;;;;;;;;;;;;;1036996;28;4231;-59
2023/04/02 02:52:57;;;;;;;;;;;;;;;;;;1038275;28;1762;-59
2023/04/02 02:53:27;;;;;;;;;;;;;;;;;;1034666;28;4103;-59
2023/04/02 02:54:01;;;;;;;;;;;;;;;;;;1039601;28;1771;-56
2023/04/02 02:54:33;;;;;;;;;;;;;;;;;;1036531;28;3802;-58
2023/04/02 02:55:05;;;;;;;;;;;;;;;;;;1037277;28;2854;-57
2023/04/02 02:55:36;;;;;;;;;;;;;;;;;;1037811;28;4012;-60
2023/04/02 02:56:06;;;;;;;;;;;;;;;;;;1038542;28;2437;-59
2023/04/02 02:56:40;;;;;;;;;;;;;;;;;;1037551;28;4013;-57
2023/04/02 02:57:12;;;;;;;;;;;;;;;;;;1036461;28;4053;-53
2023/04/02 02:57:46;;;;;;;;;;;;;;;;;;1037903;28;1901;-57
2023/04/02 02:58:25;;;;;;;;;;;;;;;;;;1037583;28;4224;-60
2023/04/02 02:58:55;;;;;;;;;;;;;;;;;;1039182;28;2897;-58
2023/04/02 02:59:27;;;;;;;;;;;;;;;;;;1038760;28;4116;-59
2023/04/02 02:59:59;;;;;;;;;;;;;;;;;;1038331;28;1808;-57
2023/04/02 03:00:30;;;;;;;;;;;;;;;;;;1039309;28;4078;-56
2023/04/02 03:01:02;;;;;;;;;;;;;;;;;;1038562;28;1667;-57
2023/04/02 03:01:32;;;;;;;;;;;;;;;;;;1039247;28;3970;-57
2023/04/02 03:02:03;;;;;;;;;;;;;;;;;;1038057;28;1866;-59
2023/04/02 03:02:35;;;;;;;;;;;;;;;;;;1036691;28;3882;-54
2023/04/02 03:03:11;;;;;;;;;;;;;;;;;;1037460;28;2769;-57
2023/04/02 03:03:41;;;;;;;;;;;;;;;;;;1038206;28;4007;-56
2023/04/02 03:04:12;;;;;;;;;;;;;;;;;;1038656;28;3768;-58
2023/04/02 03:04:45;;;;;;;;;;;;;;;;;;1039609;28;1752;-57
2023/04/02 03:05:16;;;;;;;;;;;;;;;;;;1036063;28;3922;-59
2023/04/02 03:06:00;;;;;;;;;;;;;;;;;;1038796;28;2985;-56
2023/04/02 03:06:30;;;;;;;;;;;;;;;;;;1039558;28;3957;-58
2023/04/02 03:07:02;;;;;;;;;;;;;;;;;;1039571;28;1876;-58
2023/04/02 03:07:33;;;;;;;;;;;;;;;;;;1037001;28;3994;-56
2023/04/02 03:08:05;;;;;;;;;;;;;;;;;;1038389;28;2546;-59
2023/04/02 03:08:39;;;;;;;;;;;;;;;;;;1037780;28;4002;-56
2023/04/02 03:09:18;;;;;;;;;;;;;;;;;;1038976;28;3940;-58
2023/04/02 03:10:04;;;;;;;;;;;;;;;;;;1039085;28;1676;-57
2023/04/02 03:10:55;;;;;;;;;;;;;;;;;;1038008;28;4017;-57
2023/04/02 03:11:35;;;;;;;;;;;;;;;;;;1038007;28;3918;-57
2023/04/02 03:12:14;;;;;;;;;;;;;;;;;;1038966;28;1829;-60
2023/04/02 03:12:51;;;;;;;;;;;;;;;;;;1036541;28;3707;-59
2023/04/02 03:13:27;;;;;;;;;;;;;;;;;;1036384;28;4042;-57
2023/04/02 03:14:05;;;;;;;;;;;;;;;;;;1036240;28;2672;-59
2023/04/02 03:14:45;;;;;;;;;;;;;;;;;;1037365;28;3984;-56
2023/04/02 03:15:18;;;;;;;;;;;;;;;;;;1035829;28;3884;-55
2023/04/02 03:15:58;;;;;;;;;;;;;;;;;;1034856;28;2784;-55
2023/04/02 03:16:33;;;;;;;;;;;;;;;;;;1037560;28;3890;-56
2023/04/02 03:17:07;;;;;;;;;;;;;;;;;;1038344;28;1682;-57
2023/04/02 03:17:44;;;;;;;;;;;;;;;;;;1034867;28;3803;-54
2023/04/02 03:18:33;;;;;;;;;;;;;;;;;;1038056;28;3980;-58
2023/04/02 03:19:07;;;;;;;;;;;;;;;;;;1039516;28;1427;-58
2023/04/02 03:19:41;;;;;;;;;;;;;;;;;;1036941;28;3993;-58
2023/04/02 03:20:14;;;;;;;;;;;;;;;;;;1041938;28;4037;-55
2023/04/02 03:20:50;;;;;;;;;;;;;;;;;;1041717;28;1884;-58
2023/04/02 03:21:25;;;;;;;;;;;;;;;;;;1041341;28;4128;-57
2023/04/02 03:22:11;;;;;;;;;;;;;;;;;;1041604;28;2149;-59
2023/04/02 03:22:48;;;;;;;;;;;;;;;;;;1035523;28;3667;-56
2023/04/02 03:23:25;;;;;;;;;;;;;;;;;;1037688;28;3951;-55
2023/04/02 03:24:02;;;;;;;;;;;;;;;;;;1038854;28;2066;-57
2023/04/02 03:24:32;;;;;;;;;;;;;;;;;;1037204;28;4054;-57
2023/04/02 03:25:20;;;;;;;;;;;;;;;;;;1038278;28;1916;-59
2023/04/02 03:25:53;;;;;;;;;;;;;;;;;;1034283;28;3739;-56
2023/04/02 03:26:47;;;;;;;;;;;;;;;;;;1038300;28;3779;-60
2023/04/02 03:27:20;;;;;;;;;;;;;;;;;;1038487;28;3978;-57
2023/04/02 03:27:52;;;;;;;;;;;;;;;;;;1035730;28;2800;-57
2023/04/02 03:28:26;;;;;;;;;;;;;;;;;;1039153;28;4082;-59
2023/04/02 03:29:11;;;;;;;;;;;;;;;;;;1038770;28;1929;-56
2023/04/02 03:29:45;;;;;;;;;;;;;;;;;;1036769;28;3888;-56
2023/04/02 03:30:18;;;;;;;;;;;;;;;;;;1035338;28;4426;-59
2023/04/02 03:30:58;;;;;;;;;;;;;;;;;;1039068;28;2240;-57
2023/04/02 03:31:35;;;;;;;;;;;;;;;;;;1038463;28;3912;-59
2023/04/02 03:32:16;;;;;;;;;;;;;;;;;;1038023;28;1852;-56
2023/04/02 03:32:48;;;;;;;;;;;;;;;;;;1038341;28;3954;-55
2023/04/02 03:33:18;;;;;;;;;;;;;;;;;;1038396;28;4608;-56
2023/04/02 03:33:52;;;;;;;;;;;;;;;;;;1035667;28;2151;-58
2023/04/02 03:34:31;;;;;;;;;;;;;;;;;;1038682;28;4156;-57
2023/04/02 03:35:07;;;;;;;;;;;;;;;;;;1037885;28;1776;-59
2023/04/02 03:35:38;;;;;;;;;;;;;;;;;;1038461;28;3788;-58
2023/04/02 03:36:30;;;;;;;;;;;;;;;;;;1038912;28;1675;-58
2023/04/02 03:37:05;;;;;;;;;;;;;;;;;;1035916;28;3670;-59
2023/04/02 03:37:41;;;;;;;;;;;;;;;;;;1037351;28;3883;-55
2023/04/02 03:38:14;;;;;;;;;;;;;;;;;;1037890;28;4013;-58
2023/04/02 03:38:54;;;;;;;;;;;;;;;;;;1038460;28;1822;-57
2023/04/02 03:39:26;;;;;;;;;;;;;;;;;;1038592;28;3962;-59
2023/04/02 03:39:56;;;;;;;;;;;;;;;;;;1038752;28;1763;-57
2023/04/02 03:40:32;;;;;;;;;;;;;;;;;;1036939;28;3879;-58
2023/04/02 03:41:25;;;;;;;;;;;;;;;;;;1037191;28;2236;-59
2023/04/02 03:41:59;;;;;;;;;;;;;;;;;;1038110;28;3948;-58
2023/04/02 03:42:37;;;;;;;;;;;;;;;;;;1036738;28;4034;-55
2023/04/02 03:43:14;;;;;;;;;;;;;;;;;;1040419;28;1634;-58
2023/04/02 03:43:50;;;;;;;;;;;;;;;;;;1038701;28;3983;-56
2023/04/02 03:44:29;;;;;;;;;;;;;;;;;;1037136;28;4006;-56
2023/04/02 03:45:08;;;;;;;;;;;;;;;;;;1037723;28;2178;-56
2023/04/02 03:45:40;;;;;;;;;;;;;;;;;;1038775;28;4004;-57
2023/04/02 03:46:28;;;;;;;;;;;;;;;;;;1038514;28;4099;-58
2023/04/02 03:47:02;;;;;;;;;;;;;;;;;;1038483;28;1796;-56
2023/04/02 03:47:43;;;;;;;;;;;;;;;;;;1038996;28;4006;-58
2023/04/02 03:48:19;;;;;;;;;;;;;;;;;;1038817;28;4201;-57
2023/04/02 03:48:51;;;;;;;;;;;;;;;;;;1037538;28;1987;-58
2023/04/02 03:49:32;;;;;;;;;;;;;;;;;;1038799;28;3895;-57
2023/04/02 03:50:10;;;;;;;;;;;;;;;;;;1039033;28;1890;-60
2023/04/02 03:50:44;;;;;;;;;;;;;;;;;;1037782;28;3898;-56
2023/04/02 03:51:20;;;;;;;;;;;;;;;;;;1038490;28;4061;-57
2023/04/02 03:51:57;;;;;;;;;;;;;;;;;;1038915;28;2330;-56
2023/04/02 03:52:28;;;;;;;;;;;;;;;;;;1036999;28;4118;-59
2023/04/02 03:52:59;;;;;;;;;;;;;;;;;;1039359;28;1469;-58
2023/04/02 03:53:31;;;;;;;;;;;;;;;;;;1037129;28;3929;-57
2023/04/02 03:54:01;;;;;;;;;;;;;;;;;;1038250;28;2055;-58
2023/04/02 03:54:32;;;;;;;;;;;;;;;;;;1038512;28;4087;-59
2023/04/02 03:55:09;;;;;;;;;;;;;;;;;;1037010;28;1827;-59
2023/04/02 03:55:40;;;;;;;;;;;;;;;;;;1037679;28;3898;-58
2023/04/02 03:56:20;;;;;;;;;;;;;;;;;;1038490;28;3983;-58
2023/04/02 03:56:51;;;;;;;;;;;;;;;;;;1039336;28;1620;-59
2023/04/02 03:57:28;;;;;;;;;;;;;;;;;;1037289;28;3945;-57
2023/04/02 03:58:02;;;;;;;;;;;;;;;;;;1039000;28;1387;-59
2023/04/02 03:58:37;;;;;;;;;;;;;;;;;;1037970;28;4066;-59
2023/04/02 03:59:15;;;;;;;;;;;;;;;;;;1037192;28;2256;-57
2023/04/02 03:59:53;;;;;;;;;;;;;;;;;;1035323;28;3948;-58
2023/04/02 04:00:31;;;;;;;;;;;;;;;;;;1036871;28;3944;-59
2023/04/02 04:01:19;;;;;;;;;;;;;;;;;;1038751;28;1879;-57
2023/04/02 04:01:55;;;;;;;;;;;;;;;;;;1038046;28;3901;-59
2023/04/02 04:02:25;;;;;;;;;;;;;;;;;;1035932;28;3958;-54
2023/04/02 04:02:58;;;;;;;;;;;;;;;;;;1038861;28;1647;-59